San Andres del Rabanedo, Spain
Current Conditions -  °F | °C
As of 4:00 PM on Saturday 25 Oct 2014 (Local Time) from LELN Reporting Station
Few Clouds Few Clouds  
Wind Chill: 73°   Ceiling: Unl
Heat Index: 73°   Visibility: 6mi
Dew Point: 45°   Wind: 0mph
Humidity: 36%   Direction: NA
Pressure: 30.21"   Gusts: NA
Location:  42.61°N, 5.62°W
Report Text: LELN 251400Z 00000KT 9999 FEW035CB 23/07 Q1023
Loading
Personal Weather Stations






























Interactive Weather Map
Tropical Storm Tracking
New forecast layout! Learn more

10-Day Weather Forecast

Advertisements
Track Severe Weather on mobile